Aviation Digital Data Service (ADDS)

Output produced by METARs form (1943 UTC 28 July 2015)
found at http://aviationweather.gov/adds/metars/
 
KLBT 281725Z 2818/2918 12009KT P6SM SCT035 SCT120 
     FM290300 VRB03KT P6SM SCT110 
     TEMPO 2909/2912 3SM BR 
     FM291500 11005KT P6SM BKN060